Página principal
METAR-TAF:

METAR-TAF

Aeroportos :

Wick, Escócia

latitude: 58-27N, longitude: 003-05W, altura: 39 m

Observação actual do tempo

O boletim foi feito há 17 minutos, às 22:20 UTC
Vento 14 kt de sul
Temperatura 6°C
Humidade 81%
Pressão 1002 hPa
Visibilidade 10 km ou mais
chuva fraca

METAR: EGPC 162220Z AUTO 19014KT 9999 -RA NCD 06/03 Q1002

Hora: 22:37 (22:37 UTC)

Previsão

O boletim foi feito há 2 horas e 31 minutos, às 20:06 UTC
Previsão válida de 16 às 21 UTC a 17 às 06 UTC
Vento 12 kt de sul
Visibilidade 10 km ou mais
Poucas nuvensa uma altura de 3000 ft
Temporariamente
de 16 às 21 UTC a 17 às 06 UTC
Vento 16 kt de sul com rajadas de 26 kt

TAF: EGPC 162006Z 1621/1706 17012KT 9999 FEW030 TEMPO 1621/1706 18016G26KT

Observações e previsões do tempo de mais de 4000 aeroportos (mensagens METAR e TAF).

As estações disponíveis são os pontos amarelos e vermelhos sobre o mapa.

Mova o rato sobre o mapa para ver o nome da estação.

Depois clique no ponto para visualizar as observações e previsões meteorológicas.

Para alterar o mapa : clique nos botões verdes com uma cruz preta para aumentar o zoom; no botão verde com uma pitada de zoom; ou nas setas verdes para mapas adjacentes.


METAR-TAF: